sensor_id;sensor_type;location;lat;lon;timestamp;temperature;humidity
16825;DHT22;8529;48.108;-1.706;2022-08-06T00:01:02;17.90;77.20
16825;DHT22;8529;48.108;-1.706;2022-08-06T00:03:29;17.90;77.20
16825;DHT22;8529;48.108;-1.706;2022-08-06T00:05:56;17.80;77.30
16825;DHT22;8529;48.108;-1.706;2022-08-06T00:08:23;17.80;77.10
16825;DHT22;8529;48.108;-1.706;2022-08-06T00:10:49;17.80;77.20
16825;DHT22;8529;48.108;-1.706;2022-08-06T00:13:16;17.80;77.30
16825;DHT22;8529;48.108;-1.706;2022-08-06T00:15:45;17.70;77.00
16825;DHT22;8529;48.108;-1.706;2022-08-06T00:18:12;17.70;77.20
16825;DHT22;8529;48.108;-1.706;2022-08-06T00:20:39;17.70;77.10
16825;DHT22;8529;48.108;-1.706;2022-08-06T00:23:06;17.70;76.90
16825;DHT22;8529;48.108;-1.706;2022-08-06T00:25:33;17.70;76.70
16825;DHT22;8529;48.108;-1.706;2022-08-06T00:28:00;17.70;76.90
16825;DHT22;8529;48.108;-1.706;2022-08-06T00:30:27;17.70;77.10
16825;DHT22;8529;48.108;-1.706;2022-08-06T00:32:55;17.60;76.90
16825;DHT22;8529;48.108;-1.706;2022-08-06T00:35:23;17.70;77.10
16825;DHT22;8529;48.108;-1.706;2022-08-06T00:37:50;17.60;76.90
16825;DHT22;8529;48.108;-1.706;2022-08-06T00:40:18;17.60;76.80
16825;DHT22;8529;48.108;-1.706;2022-08-06T00:42:45;17.60;77.10
16825;DHT22;8529;48.108;-1.706;2022-08-06T00:45:12;17.60;77.10
16825;DHT22;8529;48.108;-1.706;2022-08-06T00:47:39;17.50;77.00
16825;DHT22;8529;48.108;-1.706;2022-08-06T00:50:08;17.50;77.00
16825;DHT22;8529;48.108;-1.706;2022-08-06T00:52:35;17.50;77.20
16825;DHT22;8529;48.108;-1.706;2022-08-06T00:55:02;17.40;77.00
16825;DHT22;8529;48.108;-1.706;2022-08-06T00:57:29;17.40;77.20
16825;DHT22;8529;48.108;-1.706;2022-08-06T00:59:56;17.40;76.90
16825;DHT22;8529;48.108;-1.706;2022-08-06T01:02:23;17.40;77.20
16825;DHT22;8529;48.108;-1.706;2022-08-06T01:04:50;17.40;77.10
16825;DHT22;8529;48.108;-1.706;2022-08-06T01:07:18;17.30;77.00
16825;DHT22;8529;48.108;-1.706;2022-08-06T01:09:45;17.30;77.20
16825;DHT22;8529;48.108;-1.706;2022-08-06T01:12:12;17.30;77.20
16825;DHT22;8529;48.108;-1.706;2022-08-06T01:14:39;17.30;77.40
16825;DHT22;8529;48.108;-1.706;2022-08-06T01:17:11;17.30;77.50
16825;DHT22;8529;48.108;-1.706;2022-08-06T01:19:50;17.30;77.40
16825;DHT22;8529;48.108;-1.706;2022-08-06T01:22:36;17.20;77.30
16825;DHT22;8529;48.108;-1.706;2022-08-06T01:25:18;17.20;77.40
16825;DHT22;8529;48.108;-1.706;2022-08-06T01:27:56;17.20;77.50
16825;DHT22;8529;48.108;-1.706;2022-08-06T01:30:30;17.20;77.40
16825;DHT22;8529;48.108;-1.706;2022-08-06T01:33:01;17.20;77.70
16825;DHT22;8529;48.108;-1.706;2022-08-06T01:35:34;17.10;77.70
16825;DHT22;8529;48.108;-1.706;2022-08-06T01:38:06;17.10;77.90
16825;DHT22;8529;48.108;-1.706;2022-08-06T01:40:36;17.10;78.00
16825;DHT22;8529;48.108;-1.706;2022-08-06T01:43:07;17.10;78.20
16825;DHT22;8529;48.108;-1.706;2022-08-06T01:45:36;17.10;78.30
16825;DHT22;8529;48.108;-1.706;2022-08-06T01:48:08;17.10;78.30
16825;DHT22;8529;48.108;-1.706;2022-08-06T01:50:38;17.00;78.30
16825;DHT22;8529;48.108;-1.706;2022-08-06T01:53:08;17.00;78.40
16825;DHT22;8529;48.108;-1.706;2022-08-06T01:55:41;17.00;78.60
16825;DHT22;8529;48.108;-1.706;2022-08-06T01:58:11;16.90;78.50
16825;DHT22;8529;48.108;-1.706;2022-08-06T02:00:41;16.90;78.70
16825;DHT22;8529;48.108;-1.706;2022-08-06T02:03:13;16.90;78.70
16825;DHT22;8529;48.108;-1.706;2022-08-06T02:05:42;16.80;78.80
16825;DHT22;8529;48.108;-1.706;2022-08-06T02:08:13;16.90;78.80
16825;DHT22;8529;48.108;-1.706;2022-08-06T02:10:42;16.90;78.80
16825;DHT22;8529;48.108;-1.706;2022-08-06T02:13:13;16.80;78.80
16825;DHT22;8529;48.108;-1.706;2022-08-06T02:15:42;16.80;78.80
16825;DHT22;8529;48.108;-1.706;2022-08-06T02:18:11;16.70;79.10
16825;DHT22;8529;48.108;-1.706;2022-08-06T02:20:44;16.70;79.40
16825;DHT22;8529;48.108;-1.706;2022-08-06T02:23:15;16.70;79.20
16825;DHT22;8529;48.108;-1.706;2022-08-06T02:25:43;16.70;79.10
16825;DHT22;8529;48.108;-1.706;2022-08-06T02:28:13;16.70;79.50
16825;DHT22;8529;48.108;-1.706;2022-08-06T02:30:43;16.70;79.50
16825;DHT22;8529;48.108;-1.706;2022-08-06T02:33:11;16.70;79.40
16825;DHT22;8529;48.108;-1.706;2022-08-06T02:35:42;16.70;79.70
16825;DHT22;8529;48.108;-1.706;2022-08-06T02:38:17;16.60;79.60
16825;DHT22;8529;48.108;-1.706;2022-08-06T02:40:52;16.60;79.90
16825;DHT22;8529;48.108;-1.706;2022-08-06T02:43:25;16.60;79.80
16825;DHT22;8529;48.108;-1.706;2022-08-06T02:45:59;16.60;80.00
16825;DHT22;8529;48.108;-1.706;2022-08-06T02:48:35;16.60;80.00
16825;DHT22;8529;48.108;-1.706;2022-08-06T02:51:08;16.60;80.00
16825;DHT22;8529;48.108;-1.706;2022-08-06T02:53:55;16.60;80.10
16825;DHT22;8529;48.108;-1.706;2022-08-06T02:56:23;16.50;80.20
16825;DHT22;8529;48.108;-1.706;2022-08-06T02:58:54;16.50;80.30
16825;DHT22;8529;48.108;-1.706;2022-08-06T03:01:25;16.50;80.40
16825;DHT22;8529;48.108;-1.706;2022-08-06T03:03:57;16.40;80.30
16825;DHT22;8529;48.108;-1.706;2022-08-06T03:06:26;16.50;80.60
16825;DHT22;8529;48.108;-1.706;2022-08-06T03:08:54;16.40;80.40
16825;DHT22;8529;48.108;-1.706;2022-08-06T03:11:23;16.40;80.70
16825;DHT22;8529;48.108;-1.706;2022-08-06T03:13:52;16.40;80.70
16825;DHT22;8529;48.108;-1.706;2022-08-06T03:16:21;16.40;80.90
16825;DHT22;8529;48.108;-1.706;2022-08-06T03:18:49;16.40;80.80
16825;DHT22;8529;48.108;-1.706;2022-08-06T03:21:16;16.40;80.90
16825;DHT22;8529;48.108;-1.706;2022-08-06T03:23:47;16.40;80.70
16825;DHT22;8529;48.108;-1.706;2022-08-06T03:26:15;16.40;81.00
16825;DHT22;8529;48.108;-1.706;2022-08-06T03:28:42;16.40;81.10
16825;DHT22;8529;48.108;-1.706;2022-08-06T03:31:12;16.40;81.00
16825;DHT22;8529;48.108;-1.706;2022-08-06T03:33:39;16.40;81.10
16825;DHT22;8529;48.108;-1.706;2022-08-06T03:36:08;16.30;81.10
16825;DHT22;8529;48.108;-1.706;2022-08-06T03:38:38;16.30;81.20
16825;DHT22;8529;48.108;-1.706;2022-08-06T03:41:07;16.30;81.50
16825;DHT22;8529;48.108;-1.706;2022-08-06T03:43:34;16.30;81.70
16825;DHT22;8529;48.108;-1.706;2022-08-06T03:46:05;16.20;81.60
16825;DHT22;8529;48.108;-1.706;2022-08-06T03:48:37;16.20;81.80
16825;DHT22;8529;48.108;-1.706;2022-08-06T03:51:07;16.20;81.80
16825;DHT22;8529;48.108;-1.706;2022-08-06T03:53:38;16.10;81.90
16825;DHT22;8529;48.108;-1.706;2022-08-06T03:56:07;16.10;81.90
16825;DHT22;8529;48.108;-1.706;2022-08-06T03:58:37;16.20;82.10
16825;DHT22;8529;48.108;-1.706;2022-08-06T04:01:07;16.10;82.00
16825;DHT22;8529;48.108;-1.706;2022-08-06T04:03:37;16.10;82.00
16825;DHT22;8529;48.108;-1.706;2022-08-06T04:06:06;16.00;82.20
16825;DHT22;8529;48.108;-1.706;2022-08-06T04:08:35;16.10;82.30
16825;DHT22;8529;48.108;-1.706;2022-08-06T04:11:04;16.00;82.40
16825;DHT22;8529;48.108;-1.706;2022-08-06T04:13:32;16.00;82.50
16825;DHT22;8529;48.108;-1.706;2022-08-06T04:16:00;16.00;82.60
16825;DHT22;8529;48.108;-1.706;2022-08-06T04:18:30;16.00;82.90
16825;DHT22;8529;48.108;-1.706;2022-08-06T04:21:02;15.90;83.00
16825;DHT22;8529;48.108;-1.706;2022-08-06T04:23:29;15.90;83.30
16825;DHT22;8529;48.108;-1.706;2022-08-06T04:25:59;15.90;83.20
16825;DHT22;8529;48.108;-1.706;2022-08-06T04:28:29;15.90;83.40
16825;DHT22;8529;48.108;-1.706;2022-08-06T04:30:58;15.90;83.40
16825;DHT22;8529;48.108;-1.706;2022-08-06T04:33:26;15.90;83.50
16825;DHT22;8529;48.108;-1.706;2022-08-06T04:35:54;15.90;83.50
16825;DHT22;8529;48.108;-1.706;2022-08-06T04:38:23;15.90;83.70
16825;DHT22;8529;48.108;-1.706;2022-08-06T04:40:51;15.80;83.90
16825;DHT22;8529;48.108;-1.706;2022-08-06T04:43:19;15.80;84.10
16825;DHT22;8529;48.108;-1.706;2022-08-06T04:45:46;15.80;84.20
16825;DHT22;8529;48.108;-1.706;2022-08-06T04:48:14;15.80;84.40
16825;DHT22;8529;48.108;-1.706;2022-08-06T04:50:42;15.80;84.60
16825;DHT22;8529;48.108;-1.706;2022-08-06T04:53:10;15.80;84.80
16825;DHT22;8529;48.108;-1.706;2022-08-06T04:55:39;15.80;85.00
16825;DHT22;8529;48.108;-1.706;2022-08-06T04:58:12;15.70;85.40
16825;DHT22;8529;48.108;-1.706;2022-08-06T05:00:42;15.70;85.80
16825;DHT22;8529;48.108;-1.706;2022-08-06T05:03:09;15.70;86.20
16825;DHT22;8529;48.108;-1.706;2022-08-06T05:05:39;15.70;86.40
16825;DHT22;8529;48.108;-1.706;2022-08-06T05:08:07;15.80;86.80
16825;DHT22;8529;48.108;-1.706;2022-08-06T05:10:43;15.80;87.20
16825;DHT22;8529;48.108;-1.706;2022-08-06T05:13:13;15.70;87.40
16825;DHT22;8529;48.108;-1.706;2022-08-06T05:15:45;15.80;87.70
16825;DHT22;8529;48.108;-1.706;2022-08-06T05:18:19;15.80;88.00
16825;DHT22;8529;48.108;-1.706;2022-08-06T05:20:49;15.80;88.20
16825;DHT22;8529;48.108;-1.706;2022-08-06T05:23:18;15.80;88.50
16825;DHT22;8529;48.108;-1.706;2022-08-06T05:25:48;15.90;88.60
16825;DHT22;8529;48.108;-1.706;2022-08-06T05:28:15;16.00;88.80
16825;DHT22;8529;48.108;-1.706;2022-08-06T05:30:45;15.90;88.80
16825;DHT22;8529;48.108;-1.706;2022-08-06T05:33:21;16.00;89.10
16825;DHT22;8529;48.108;-1.706;2022-08-06T05:35:48;16.00;89.20
16825;DHT22;8529;48.108;-1.706;2022-08-06T05:38:15;16.00;89.40
16825;DHT22;8529;48.108;-1.706;2022-08-06T05:40:42;16.00;89.50
16825;DHT22;8529;48.108;-1.706;2022-08-06T05:43:11;16.10;89.80
16825;DHT22;8529;48.108;-1.706;2022-08-06T05:45:39;16.10;89.90
16825;DHT22;8529;48.108;-1.706;2022-08-06T05:48:08;16.10;89.90
16825;DHT22;8529;48.108;-1.706;2022-08-06T05:50:39;16.20;90.00
16825;DHT22;8529;48.108;-1.706;2022-08-06T05:53:11;16.10;90.00
16825;DHT22;8529;48.108;-1.706;2022-08-06T05:55:44;16.20;90.10
16825;DHT22;8529;48.108;-1.706;2022-08-06T05:58:19;16.20;90.10
16825;DHT22;8529;48.108;-1.706;2022-08-06T06:00:47;16.20;90.20
16825;DHT22;8529;48.108;-1.706;2022-08-06T06:03:15;16.20;90.30
16825;DHT22;8529;48.108;-1.706;2022-08-06T06:05:44;16.20;90.40
16825;DHT22;8529;48.108;-1.706;2022-08-06T06:08:11;16.30;90.50
16825;DHT22;8529;48.108;-1.706;2022-08-06T06:10:39;16.30;90.40
16825;DHT22;8529;48.108;-1.706;2022-08-06T06:13:07;16.30;90.50
16825;DHT22;8529;48.108;-1.706;2022-08-06T06:15:40;16.40;90.60
16825;DHT22;8529;48.108;-1.706;2022-08-06T06:18:18;16.40;90.60
16825;DHT22;8529;48.108;-1.706;2022-08-06T06:20:52;16.40;90.70
16825;DHT22;8529;48.108;-1.706;2022-08-06T06:23:26;16.40;90.70
16825;DHT22;8529;48.108;-1.706;2022-08-06T06:26:02;16.40;90.80
16825;DHT22;8529;48.108;-1.706;2022-08-06T06:28:35;16.50;90.90
16825;DHT22;8529;48.108;-1.706;2022-08-06T06:31:10;16.50;91.00
16825;DHT22;8529;48.108;-1.706;2022-08-06T06:33:50;16.50;91.10
16825;DHT22;8529;48.108;-1.706;2022-08-06T06:36:28;16.60;91.20
16825;DHT22;8529;48.108;-1.706;2022-08-06T06:39:02;16.60;91.30
16825;DHT22;8529;48.108;-1.706;2022-08-06T06:41:34;16.70;91.40
16825;DHT22;8529;48.108;-1.706;2022-08-06T06:44:09;16.70;91.40
16825;DHT22;8529;48.108;-1.706;2022-08-06T06:46:45;16.80;91.50
16825;DHT22;8529;48.108;-1.706;2022-08-06T06:49:19;16.80;91.40
16825;DHT22;8529;48.108;-1.706;2022-08-06T06:51:51;16.90;91.50
16825;DHT22;8529;48.108;-1.706;2022-08-06T06:54:22;16.90;91.50
16825;DHT22;8529;48.108;-1.706;2022-08-06T06:56:52;17.00;91.60
16825;DHT22;8529;48.108;-1.706;2022-08-06T06:59:24;17.00;91.50
16825;DHT22;8529;48.108;-1.706;2022-08-06T07:01:57;17.10;91.50
16825;DHT22;8529;48.108;-1.706;2022-08-06T07:04:26;17.10;91.40
16825;DHT22;8529;48.108;-1.706;2022-08-06T07:06:56;17.20;91.30
16825;DHT22;8529;48.108;-1.706;2022-08-06T07:09:25;17.20;91.20
16825;DHT22;8529;48.108;-1.706;2022-08-06T07:11:56;17.30;91.10
16825;DHT22;8529;48.108;-1.706;2022-08-06T07:14:24;17.30;90.90
16825;DHT22;8529;48.108;-1.706;2022-08-06T07:16:53;17.40;90.90
16825;DHT22;8529;48.108;-1.706;2022-08-06T07:19:23;17.40;90.70
16825;DHT22;8529;48.108;-1.706;2022-08-06T07:21:51;17.50;90.50
16825;DHT22;8529;48.108;-1.706;2022-08-06T07:24:20;17.50;90.20
16825;DHT22;8529;48.108;-1.706;2022-08-06T07:26:50;17.60;89.90
16825;DHT22;8529;48.108;-1.706;2022-08-06T07:29:19;17.70;89.70
16825;DHT22;8529;48.108;-1.706;2022-08-06T07:31:47;17.70;89.50
16825;DHT22;8529;48.108;-1.706;2022-08-06T07:34:16;17.80;88.60
16825;DHT22;8529;48.108;-1.706;2022-08-06T07:36:48;17.90;88.20
16825;DHT22;8529;48.108;-1.706;2022-08-06T07:39:21;17.90;87.60
16825;DHT22;8529;48.108;-1.706;2022-08-06T07:41:50;18.00;87.30
16825;DHT22;8529;48.108;-1.706;2022-08-06T07:44:20;18.10;87.00
16825;DHT22;8529;48.108;-1.706;2022-08-06T07:46:50;18.10;86.40
16825;DHT22;8529;48.108;-1.706;2022-08-06T07:49:22;18.20;85.50
16825;DHT22;8529;48.108;-1.706;2022-08-06T07:51:52;18.20;82.90
16825;DHT22;8529;48.108;-1.706;2022-08-06T07:54:22;18.30;82.80
16825;DHT22;8529;48.108;-1.706;2022-08-06T07:56:51;18.30;82.30
16825;DHT22;8529;48.108;-1.706;2022-08-06T07:59:19;18.40;81.70
16825;DHT22;8529;48.108;-1.706;2022-08-06T08:01:47;18.50;81.20
16825;DHT22;8529;48.108;-1.706;2022-08-06T08:04:14;18.50;80.90
16825;DHT22;8529;48.108;-1.706;2022-08-06T08:07:01;18.50;80.00
16825;DHT22;8529;48.108;-1.706;2022-08-06T08:09:29;18.60;79.10
16825;DHT22;8529;48.108;-1.706;2022-08-06T08:11:58;18.70;78.80
16825;DHT22;8529;48.108;-1.706;2022-08-06T08:14:25;18.70;78.20
16825;DHT22;8529;48.108;-1.706;2022-08-06T08:16:52;18.70;77.60
16825;DHT22;8529;48.108;-1.706;2022-08-06T08:19:21;18.80;77.60
16825;DHT22;8529;48.108;-1.706;2022-08-06T08:21:49;18.90;76.80
16825;DHT22;8529;48.108;-1.706;2022-08-06T08:24:17;18.90;76.10
16825;DHT22;8529;48.108;-1.706;2022-08-06T08:26:44;19.00;76.00
16825;DHT22;8529;48.108;-1.706;2022-08-06T08:29:11;19.00;74.80
16825;DHT22;8529;48.108;-1.706;2022-08-06T08:31:38;19.00;73.60
16825;DHT22;8529;48.108;-1.706;2022-08-06T08:34:05;19.10;73.60
16825;DHT22;8529;48.108;-1.706;2022-08-06T08:36:32;19.20;72.20
16825;DHT22;8529;48.108;-1.706;2022-08-06T08:38:59;19.20;72.00
16825;DHT22;8529;48.108;-1.706;2022-08-06T08:41:31;19.30;71.70
16825;DHT22;8529;48.108;-1.706;2022-08-06T08:44:02;19.30;70.00
16825;DHT22;8529;48.108;-1.706;2022-08-06T08:46:33;19.40;71.20
16825;DHT22;8529;48.108;-1.706;2022-08-06T08:49:02;19.40;70.90
16825;DHT22;8529;48.108;-1.706;2022-08-06T08:51:32;19.40;70.60
16825;DHT22;8529;48.108;-1.706;2022-08-06T08:54:02;19.40;71.00
16825;DHT22;8529;48.108;-1.706;2022-08-06T08:56:33;19.50;71.70
16825;DHT22;8529;48.108;-1.706;2022-08-06T08:59:01;19.50;70.40
16825;DHT22;8529;48.108;-1.706;2022-08-06T09:01:29;19.50;70.60
16825;DHT22;8529;48.108;-1.706;2022-08-06T09:03:56;19.60;70.40
16825;DHT22;8529;48.108;-1.706;2022-08-06T09:06:23;19.60;69.80
16825;DHT22;8529;48.108;-1.706;2022-08-06T09:08:51;19.60;70.80
16825;DHT22;8529;48.108;-1.706;2022-08-06T09:11:18;19.60;70.00
16825;DHT22;8529;48.108;-1.706;2022-08-06T09:13:47;19.60;70.80
16825;DHT22;8529;48.108;-1.706;2022-08-06T09:16:14;19.70;71.10
16825;DHT22;8529;48.108;-1.706;2022-08-06T09:18:41;19.80;68.10
16825;DHT22;8529;48.108;-1.706;2022-08-06T09:21:08;20.10;67.60
16825;DHT22;8529;48.108;-1.706;2022-08-06T09:23:37;20.20;67.40
16825;DHT22;8529;48.108;-1.706;2022-08-06T09:26:05;20.20;66.50
16825;DHT22;8529;48.108;-1.706;2022-08-06T09:28:34;20.30;65.40
16825;DHT22;8529;48.108;-1.706;2022-08-06T09:31:04;20.30;64.60
16825;DHT22;8529;48.108;-1.706;2022-08-06T09:33:33;20.30;65.10
16825;DHT22;8529;48.108;-1.706;2022-08-06T09:36:03;20.30;65.60
16825;DHT22;8529;48.108;-1.706;2022-08-06T09:38:31;20.40;64.40
16825;DHT22;8529;48.108;-1.706;2022-08-06T09:41:06;20.50;64.80
16825;DHT22;8529;48.108;-1.706;2022-08-06T09:43:34;20.70;61.70
16825;DHT22;8529;48.108;-1.706;2022-08-06T09:46:02;20.90;60.80
16825;DHT22;8529;48.108;-1.706;2022-08-06T09:48:29;21.00;61.60
16825;DHT22;8529;48.108;-1.706;2022-08-06T09:50:56;21.10;59.40
16825;DHT22;8529;48.108;-1.706;2022-08-06T09:53:24;21.10;60.00
16825;DHT22;8529;48.108;-1.706;2022-08-06T09:55:52;21.20;60.00
16825;DHT22;8529;48.108;-1.706;2022-08-06T09:58:27;21.30;59.00
16825;DHT22;8529;48.108;-1.706;2022-08-06T10:00:54;21.60;59.30
16825;DHT22;8529;48.108;-1.706;2022-08-06T10:03:23;21.60;59.40
16825;DHT22;8529;48.108;-1.706;2022-08-06T10:06:04;21.60;57.40
16825;DHT22;8529;48.108;-1.706;2022-08-06T10:08:31;21.70;58.30
16825;DHT22;8529;48.108;-1.706;2022-08-06T10:10:58;21.80;56.70
16825;DHT22;8529;48.108;-1.706;2022-08-06T10:13:29;22.00;57.00
16825;DHT22;8529;48.108;-1.706;2022-08-06T10:15:58;22.10;56.30
16825;DHT22;8529;48.108;-1.706;2022-08-06T10:18:33;22.30;57.80
16825;DHT22;8529;48.108;-1.706;2022-08-06T10:21:01;22.40;55.80
16825;DHT22;8529;48.108;-1.706;2022-08-06T10:23:30;22.50;55.60
16825;DHT22;8529;48.108;-1.706;2022-08-06T10:25:57;22.60;55.00
16825;DHT22;8529;48.108;-1.706;2022-08-06T10:28:26;22.60;55.20
16825;DHT22;8529;48.108;-1.706;2022-08-06T10:30:54;22.70;55.10
16825;DHT22;8529;48.108;-1.706;2022-08-06T10:33:23;22.70;55.70
16825;DHT22;8529;48.108;-1.706;2022-08-06T10:35:57;22.90;53.30
16825;DHT22;8529;48.108;-1.706;2022-08-06T10:38:26;23.10;53.50
16825;DHT22;8529;48.108;-1.706;2022-08-06T10:40:54;22.90;56.20
16825;DHT22;8529;48.108;-1.706;2022-08-06T10:43:24;22.80;55.50
16825;DHT22;8529;48.108;-1.706;2022-08-06T10:45:52;22.80;55.60
16825;DHT22;8529;48.108;-1.706;2022-08-06T10:48:20;22.90;55.10
16825;DHT22;8529;48.108;-1.706;2022-08-06T10:50:49;22.90;56.30
16825;DHT22;8529;48.108;-1.706;2022-08-06T10:53:18;22.80;55.80
16825;DHT22;8529;48.108;-1.706;2022-08-06T10:55:45;22.80;57.20
16825;DHT22;8529;48.108;-1.706;2022-08-06T10:58:12;22.90;54.70
16825;DHT22;8529;48.108;-1.706;2022-08-06T11:00:41;22.90;55.40
16825;DHT22;8529;48.108;-1.706;2022-08-06T11:03:15;22.90;56.30
16825;DHT22;8529;48.108;-1.706;2022-08-06T11:05:50;22.80;57.80
16825;DHT22;8529;48.108;-1.706;2022-08-06T11:08:35;22.80;56.40
16825;DHT22;8529;48.108;-1.706;2022-08-06T11:11:18;22.90;56.70
16825;DHT22;8529;48.108;-1.706;2022-08-06T11:13:54;22.90;54.70
16825;DHT22;8529;48.108;-1.706;2022-08-06T11:16:26;23.00;56.00
16825;DHT22;8529;48.108;-1.706;2022-08-06T11:19:00;23.00;55.10
16825;DHT22;8529;48.108;-1.706;2022-08-06T11:21:39;23.10;53.70
16825;DHT22;8529;48.108;-1.706;2022-08-06T11:24:08;23.10;52.90
16825;DHT22;8529;48.108;-1.706;2022-08-06T11:26:39;23.20;54.40
16825;DHT22;8529;48.108;-1.706;2022-08-06T11:29:07;23.20;55.20
16825;DHT22;8529;48.108;-1.706;2022-08-06T11:31:39;23.10;55.50
16825;DHT22;8529;48.108;-1.706;2022-08-06T11:34:08;23.10;53.20
16825;DHT22;8529;48.108;-1.706;2022-08-06T11:36:47;23.10;54.00
16825;DHT22;8529;48.108;-1.706;2022-08-06T11:39:17;23.10;53.70
16825;DHT22;8529;48.108;-1.706;2022-08-06T11:41:50;23.10;54.20
16825;DHT22;8529;48.108;-1.706;2022-08-06T11:44:18;23.10;53.40
16825;DHT22;8529;48.108;-1.706;2022-08-06T11:46:46;23.20;53.30
16825;DHT22;8529;48.108;-1.706;2022-08-06T11:49:21;23.20;55.80
16825;DHT22;8529;48.108;-1.706;2022-08-06T11:51:58;23.20;55.70
16825;DHT22;8529;48.108;-1.706;2022-08-06T11:54:28;23.20;57.00
16825;DHT22;8529;48.108;-1.706;2022-08-06T11:57:18;23.30;53.90
16825;DHT22;8529;48.108;-1.706;2022-08-06T12:00:00;23.30;53.60
16825;DHT22;8529;48.108;-1.706;2022-08-06T12:02:57;23.40;54.50
16825;DHT22;8529;48.108;-1.706;2022-08-06T12:05:34;23.50;54.30
16825;DHT22;8529;48.108;-1.706;2022-08-06T12:08:21;23.50;55.70
16825;DHT22;8529;48.108;-1.706;2022-08-06T12:11:26;23.70;54.10
16825;DHT22;8529;48.108;-1.706;2022-08-06T12:14:01;23.60;54.20
16825;DHT22;8529;48.108;-1.706;2022-08-06T12:16:33;23.50;55.70
16825;DHT22;8529;48.108;-1.706;2022-08-06T12:19:02;23.50;55.00
16825;DHT22;8529;48.108;-1.706;2022-08-06T12:21:29;23.50;56.20
16825;DHT22;8529;48.108;-1.706;2022-08-06T12:23:56;23.50;55.70
16825;DHT22;8529;48.108;-1.706;2022-08-06T12:26:24;23.50;55.70
16825;DHT22;8529;48.108;-1.706;2022-08-06T12:29:01;23.70;53.30
16825;DHT22;8529;48.108;-1.706;2022-08-06T12:31:30;23.70;55.30
16825;DHT22;8529;48.108;-1.706;2022-08-06T12:33:58;23.70;54.60
16825;DHT22;8529;48.108;-1.706;2022-08-06T12:36:26;23.70;57.90
16825;DHT22;8529;48.108;-1.706;2022-08-06T12:38:55;23.60;58.20
16825;DHT22;8529;48.108;-1.706;2022-08-06T12:41:22;23.50;57.20
16825;DHT22;8529;48.108;-1.706;2022-08-06T12:43:50;23.50;58.40
16825;DHT22;8529;48.108;-1.706;2022-08-06T12:46:18;23.50;58.20
16825;DHT22;8529;48.108;-1.706;2022-08-06T12:48:46;23.50;54.30
16825;DHT22;8529;48.108;-1.706;2022-08-06T12:51:14;23.70;53.50
16825;DHT22;8529;48.108;-1.706;2022-08-06T12:53:42;23.70;54.00
16825;DHT22;8529;48.108;-1.706;2022-08-06T12:56:10;23.80;53.40
16825;DHT22;8529;48.108;-1.706;2022-08-06T12:58:39;23.70;56.00
16825;DHT22;8529;48.108;-1.706;2022-08-06T13:01:10;23.70;56.00
16825;DHT22;8529;48.108;-1.706;2022-08-06T13:03:41;23.60;57.60
16825;DHT22;8529;48.108;-1.706;2022-08-06T13:06:10;23.50;58.30
16825;DHT22;8529;48.108;-1.706;2022-08-06T13:08:37;23.50;54.40
16825;DHT22;8529;48.108;-1.706;2022-08-06T13:11:05;23.60;55.00
16825;DHT22;8529;48.108;-1.706;2022-08-06T13:13:38;23.70;54.90
16825;DHT22;8529;48.108;-1.706;2022-08-06T13:16:08;23.70;54.90
16825;DHT22;8529;48.108;-1.706;2022-08-06T13:18:38;23.70;56.70
16825;DHT22;8529;48.108;-1.706;2022-08-06T13:21:16;23.60;58.00
16825;DHT22;8529;48.108;-1.706;2022-08-06T13:23:46;23.70;53.80
16825;DHT22;8529;48.108;-1.706;2022-08-06T13:26:15;23.80;54.90
16825;DHT22;8529;48.108;-1.706;2022-08-06T13:29:03;24.10;52.20
16825;DHT22;8529;48.108;-1.706;2022-08-06T13:31:32;24.10;52.30
16825;DHT22;8529;48.108;-1.706;2022-08-06T13:34:01;24.00;53.50
16825;DHT22;8529;48.108;-1.706;2022-08-06T13:36:30;24.10;52.00
16825;DHT22;8529;48.108;-1.706;2022-08-06T13:38:57;24.10;51.10
16825;DHT22;8529;48.108;-1.706;2022-08-06T13:41:29;24.20;49.80
16825;DHT22;8529;48.108;-1.706;2022-08-06T13:43:58;24.40;50.10
16825;DHT22;8529;48.108;-1.706;2022-08-06T13:46:27;24.30;53.90
16825;DHT22;8529;48.108;-1.706;2022-08-06T13:48:56;24.10;53.30
16825;DHT22;8529;48.108;-1.706;2022-08-06T13:51:25;24.10;53.80
16825;DHT22;8529;48.108;-1.706;2022-08-06T13:53:52;24.00;51.50
16825;DHT22;8529;48.108;-1.706;2022-08-06T13:56:19;24.20;52.00
16825;DHT22;8529;48.108;-1.706;2022-08-06T13:58:47;24.10;56.20
16825;DHT22;8529;48.108;-1.706;2022-08-06T14:01:14;24.00;56.70
16825;DHT22;8529;48.108;-1.706;2022-08-06T14:03:41;23.90;54.50
16825;DHT22;8529;48.108;-1.706;2022-08-06T14:06:07;24.00;51.60
16825;DHT22;8529;48.108;-1.706;2022-08-06T14:08:36;24.10;50.70
16825;DHT22;8529;48.108;-1.706;2022-08-06T14:11:03;24.10;51.10
16825;DHT22;8529;48.108;-1.706;2022-08-06T14:13:30;24.10;53.80
16825;DHT22;8529;48.108;-1.706;2022-08-06T14:15:57;24.00;52.10
16825;DHT22;8529;48.108;-1.706;2022-08-06T14:18:26;24.10;52.30
16825;DHT22;8529;48.108;-1.706;2022-08-06T14:20:54;24.10;55.70
16825;DHT22;8529;48.108;-1.706;2022-08-06T14:23:22;24.00;54.00
16825;DHT22;8529;48.108;-1.706;2022-08-06T14:25:50;23.90;55.00
16825;DHT22;8529;48.108;-1.706;2022-08-06T14:28:17;23.80;54.90
16825;DHT22;8529;48.108;-1.706;2022-08-06T14:30:46;23.90;53.80
16825;DHT22;8529;48.108;-1.706;2022-08-06T14:33:13;23.80;53.40
16825;DHT22;8529;48.108;-1.706;2022-08-06T14:35:40;23.80;54.50
16825;DHT22;8529;48.108;-1.706;2022-08-06T14:38:06;23.90;53.30
16825;DHT22;8529;48.108;-1.706;2022-08-06T14:40:34;23.90;54.20
16825;DHT22;8529;48.108;-1.706;2022-08-06T14:43:20;23.90;54.50
16825;DHT22;8529;48.108;-1.706;2022-08-06T14:46:05;24.10;52.70
16825;DHT22;8529;48.108;-1.706;2022-08-06T14:48:32;24.10;52.70
16825;DHT22;8529;48.108;-1.706;2022-08-06T14:50:58;24.10;56.70
16825;DHT22;8529;48.108;-1.706;2022-08-06T14:53:25;24.00;54.00
16825;DHT22;8529;48.108;-1.706;2022-08-06T14:55:52;24.00;52.30
16825;DHT22;8529;48.108;-1.706;2022-08-06T14:58:20;24.00;54.70
16825;DHT22;8529;48.108;-1.706;2022-08-06T15:00:47;24.00;55.50
16825;DHT22;8529;48.108;-1.706;2022-08-06T15:03:17;24.00;53.10
16825;DHT22;8529;48.108;-1.706;2022-08-06T15:05:45;24.10;53.90
16825;DHT22;8529;48.108;-1.706;2022-08-06T15:08:12;24.10;53.40
16825;DHT22;8529;48.108;-1.706;2022-08-06T15:10:40;24.10;53.90
16825;DHT22;8529;48.108;-1.706;2022-08-06T15:13:06;24.00;54.80
16825;DHT22;8529;48.108;-1.706;2022-08-06T15:15:35;24.00;53.50
16825;DHT22;8529;48.108;-1.706;2022-08-06T15:18:02;24.10;51.90
16825;DHT22;8529;48.108;-1.706;2022-08-06T15:20:29;24.10;53.50
16825;DHT22;8529;48.108;-1.706;2022-08-06T15:22:56;24.10;54.20
16825;DHT22;8529;48.108;-1.706;2022-08-06T15:25:23;24.00;57.10
16825;DHT22;8529;48.108;-1.706;2022-08-06T15:27:50;23.90;57.40
16825;DHT22;8529;48.108;-1.706;2022-08-06T15:30:17;23.90;56.30
16825;DHT22;8529;48.108;-1.706;2022-08-06T15:32:45;23.90;55.70
16825;DHT22;8529;48.108;-1.706;2022-08-06T15:35:13;23.90;54.00
16825;DHT22;8529;48.108;-1.706;2022-08-06T15:37:40;24.00;53.40
16825;DHT22;8529;48.108;-1.706;2022-08-06T15:40:08;24.00;50.00
16825;DHT22;8529;48.108;-1.706;2022-08-06T15:42:35;24.10;50.00
16825;DHT22;8529;48.108;-1.706;2022-08-06T15:45:02;24.10;51.10
16825;DHT22;8529;48.108;-1.706;2022-08-06T15:47:29;24.10;51.90